createdAt,value
2018-10-07T00:00:47.297Z,84.30
2018-10-07T00:03:19.324Z,84.40
2018-10-07T00:05:51.664Z,84.40
2018-10-07T00:08:23.460Z,84.20
2018-10-07T00:10:55.313Z,84.40
2018-10-07T00:13:27.193Z,84.40
2018-10-07T00:15:59.803Z,84.00
2018-10-07T00:18:31.575Z,84.40
2018-10-07T00:21:03.517Z,84.50
2018-10-07T00:23:35.243Z,84.40
2018-10-07T00:26:07.508Z,84.20
2018-10-07T00:28:40.733Z,84.30
2018-10-07T00:31:12.766Z,84.50
2018-10-07T00:33:44.635Z,84.90
2018-10-07T00:36:16.396Z,85.00
2018-10-07T00:38:48.044Z,84.20
2018-10-07T00:41:19.879Z,84.50
2018-10-07T00:43:51.536Z,84.90
2018-10-07T00:46:23.551Z,85.20
2018-10-07T00:48:55.489Z,85.30
2018-10-07T00:51:27.681Z,85.40
2018-10-07T00:53:59.620Z,84.70
2018-10-07T00:56:31.418Z,84.30
2018-10-07T00:59:03.426Z,84.80
2018-10-07T01:01:35.375Z,84.60
2018-10-07T01:04:07.339Z,85.00
2018-10-07T01:06:39.592Z,85.00
2018-10-07T01:09:13.309Z,85.40
2018-10-07T01:11:46.046Z,85.70
2018-10-07T01:14:18.098Z,85.40
2018-10-07T01:16:50.014Z,84.70
2018-10-07T01:19:21.694Z,84.50
2018-10-07T01:21:53.433Z,84.50
2018-10-07T01:24:25.296Z,84.70
2018-10-07T01:26:57.183Z,84.50
2018-10-07T01:29:30.045Z,84.90
2018-10-07T01:32:02.572Z,85.30
2018-10-07T01:34:34.623Z,85.60
2018-10-07T01:37:06.686Z,86.00
2018-10-07T01:39:40.860Z,86.30
2018-10-07T01:42:12.581Z,86.40
2018-10-07T01:44:44.589Z,86.20
2018-10-07T01:47:17.234Z,86.60
2018-10-07T01:49:48.840Z,87.00
2018-10-07T01:52:20.837Z,86.60
2018-10-07T01:54:52.519Z,86.20
2018-10-07T01:57:24.512Z,86.30
2018-10-07T01:59:57.473Z,86.50
2018-10-07T02:02:29.862Z,86.30
2018-10-07T02:05:01.849Z,85.50
2018-10-07T02:07:33.826Z,85.90
2018-10-07T02:10:05.713Z,86.30
2018-10-07T02:12:37.177Z,86.80
2018-10-07T02:15:08.977Z,86.70
2018-10-07T02:17:41.134Z,86.70
2018-10-07T02:20:13.133Z,87.30
2018-10-07T02:22:44.955Z,87.00
2018-10-07T02:25:17.736Z,86.90
2018-10-07T02:27:49.525Z,86.90
2018-10-07T02:30:21.348Z,86.80
2018-10-07T02:32:54.057Z,87.10
2018-10-07T02:35:25.718Z,87.90
2018-10-07T02:37:58.297Z,88.10
2018-10-07T02:40:30.042Z,88.20
2018-10-07T02:43:01.885Z,87.20
2018-10-07T02:45:33.597Z,87.80
2018-10-07T02:48:05.457Z,88.10
2018-10-07T02:50:37.505Z,87.70
2018-10-07T02:53:10.034Z,87.90
2018-10-07T02:55:41.860Z,87.50
2018-10-07T02:58:14.130Z,87.20
2018-10-07T03:00:45.990Z,86.30
2018-10-07T03:03:17.632Z,86.90
2018-10-07T03:05:49.553Z,86.70
2018-10-07T03:08:21.473Z,87.40
2018-10-07T03:10:53.534Z,88.20
2018-10-07T03:13:25.704Z,88.70
2018-10-07T03:15:57.749Z,88.00
2018-10-07T03:18:30.079Z,87.90
2018-10-07T03:21:02.485Z,89.00
2018-10-07T03:23:34.989Z,89.30
2018-10-07T03:26:07.532Z,89.30
2018-10-07T03:28:40.253Z,88.90
2018-10-07T03:31:12.489Z,88.60
2018-10-07T03:33:44.300Z,88.80
2018-10-07T03:36:16.054Z,88.80
2018-10-07T03:38:47.984Z,87.90
2018-10-07T03:41:21.201Z,87.80
2018-10-07T03:43:53.023Z,87.20
2018-10-07T03:46:24.815Z,87.40
2018-10-07T03:48:56.884Z,87.80
2018-10-07T03:51:29.788Z,88.60
2018-10-07T03:54:01.563Z,89.20
2018-10-07T03:56:33.286Z,89.40
2018-10-07T03:59:05.315Z,89.90
2018-10-07T04:01:37.283Z,89.10
2018-10-07T04:04:09.108Z,88.90
2018-10-07T04:06:41.028Z,89.40
2018-10-07T04:09:14.085Z,89.80
2018-10-07T04:11:45.815Z,90.00
2018-10-07T04:14:17.687Z,89.40
2018-10-07T04:16:50.437Z,89.00
2018-10-07T04:19:22.404Z,88.70
2018-10-07T04:21:56.480Z,88.70
2018-10-07T04:24:31.909Z,89.00
2018-10-07T04:27:04.648Z,88.60
2018-10-07T04:29:36.699Z,88.40
2018-10-07T04:32:08.719Z,88.80
2018-10-07T04:34:41.107Z,89.20
2018-10-07T04:37:13.396Z,89.80
2018-10-07T04:39:45.420Z,89.90
2018-10-07T04:42:17.823Z,89.30
2018-10-07T04:44:50.363Z,89.00
2018-10-07T04:47:22.440Z,87.80
2018-10-07T04:49:54.335Z,88.80
2018-10-07T04:52:26.493Z,88.30
2018-10-07T04:54:59.022Z,89.20
2018-10-07T04:57:30.790Z,90.10
2018-10-07T05:00:03.063Z,90.30
2018-10-07T05:02:35.159Z,90.60
2018-10-07T05:06:37.930Z,90.60
2018-10-07T05:09:11.625Z,90.30
2018-10-07T05:11:45.188Z,90.10
2018-10-07T05:14:18.092Z,90.00
2018-10-07T05:16:53.026Z,89.90
2018-10-07T05:19:25.067Z,89.60
2018-10-07T05:21:57.149Z,89.70
2018-10-07T05:24:29.152Z,89.30
2018-10-07T05:27:02.598Z,88.50
2018-10-07T05:29:34.765Z,88.50
2018-10-07T05:32:06.748Z,88.80
2018-10-07T05:34:39.281Z,87.40
2018-10-07T05:37:11.488Z,87.10
2018-10-07T05:39:43.487Z,87.50
2018-10-07T05:42:15.670Z,86.60
2018-10-07T05:44:47.818Z,86.00
2018-10-07T05:47:19.669Z,85.70
2018-10-07T05:49:52.548Z,85.60
2018-10-07T05:52:24.431Z,85.50
2018-10-07T05:54:56.699Z,85.90
2018-10-07T05:57:28.966Z,85.10
2018-10-07T06:00:01.477Z,84.40
2018-10-07T06:02:34.319Z,83.80
2018-10-07T06:05:06.928Z,83.10
2018-10-07T06:07:39.399Z,83.50
2018-10-07T06:10:11.940Z,83.40
2018-10-07T06:12:44.184Z,83.00
2018-10-07T06:15:37.425Z,82.20
2018-10-07T06:18:09.025Z,80.90
2018-10-07T06:20:41.456Z,80.50
2018-10-07T06:23:14.589Z,80.10
2018-10-07T06:25:46.747Z,79.20
2018-10-07T06:28:18.740Z,77.50
2018-10-07T06:30:50.936Z,77.50
2018-10-07T06:33:23.049Z,76.40
2018-10-07T06:35:55.925Z,75.60
2018-10-07T06:38:28.297Z,75.10
2018-10-07T06:41:00.319Z,74.20
2018-10-07T06:43:32.782Z,72.50
2018-10-07T06:46:04.826Z,71.80
2018-10-07T06:48:36.800Z,72.20
2018-10-07T06:51:08.925Z,71.70
2018-10-07T06:53:41.021Z,71.40
2018-10-07T06:56:13.326Z,70.40
2018-10-07T06:58:45.400Z,69.80
2018-10-07T07:01:17.563Z,67.00
2018-10-07T07:03:49.874Z,67.90
2018-10-07T07:06:22.103Z,68.00
2018-10-07T07:08:54.761Z,67.00
2018-10-07T07:11:27.113Z,66.30
2018-10-07T07:13:59.329Z,66.00
2018-10-07T07:16:31.495Z,64.50
2018-10-07T07:19:03.581Z,64.40
2018-10-07T07:21:36.040Z,63.30
2018-10-07T07:24:09.462Z,63.10
2018-10-07T07:26:41.936Z,63.10
2018-10-07T07:29:14.123Z,62.40
2018-10-07T07:31:46.420Z,63.00
2018-10-07T07:34:18.892Z,61.70
2018-10-07T07:36:51.391Z,60.90
2018-10-07T07:39:23.675Z,60.50
2018-10-07T07:41:56.291Z,60.80
2018-10-07T07:44:28.417Z,59.50
2018-10-07T07:47:01.577Z,58.70
2018-10-07T07:49:34.054Z,58.20
2018-10-07T07:52:06.260Z,57.90
2018-10-07T07:54:38.559Z,57.80
2018-10-07T07:57:10.316Z,57.50
2018-10-07T07:59:42.441Z,56.90
2018-10-07T08:02:14.454Z,56.30
2018-10-07T08:04:47.452Z,56.20
2018-10-07T08:07:20.135Z,56.40
2018-10-07T08:09:52.549Z,55.50
2018-10-07T08:12:24.608Z,54.60
2018-10-07T08:14:57.012Z,54.70
2018-10-07T08:17:29.320Z,54.40
2018-10-07T08:20:01.366Z,54.00
2018-10-07T08:22:33.395Z,54.40
2018-10-07T08:25:05.508Z,53.50
2018-10-07T08:27:37.617Z,54.10
2018-10-07T08:30:09.950Z,53.80
2018-10-07T08:32:42.252Z,54.00
2018-10-07T08:35:14.626Z,53.60
2018-10-07T08:37:46.312Z,52.10
2018-10-07T08:40:18.541Z,52.30
2018-10-07T08:42:51.181Z,53.10
2018-10-07T08:45:23.279Z,52.40
2018-10-07T08:47:55.681Z,51.60
2018-10-07T08:50:28.457Z,52.20
2018-10-07T08:53:00.935Z,52.00
2018-10-07T08:55:33.458Z,52.10
2018-10-07T08:58:06.064Z,52.20
2018-10-07T09:00:38.689Z,51.70
2018-10-07T09:03:11.591Z,52.40
2018-10-07T09:05:43.172Z,51.00
2018-10-07T09:08:15.341Z,51.30
2018-10-07T09:10:47.562Z,50.80
2018-10-07T09:13:20.347Z,50.70
2018-10-07T09:15:52.625Z,50.70
2018-10-07T09:18:24.769Z,51.30
2018-10-07T09:20:56.818Z,50.90
2018-10-07T09:23:28.947Z,51.20
2018-10-07T09:26:02.089Z,51.10
2018-10-07T09:28:35.814Z,51.20
2018-10-07T09:31:07.919Z,50.90
2018-10-07T09:33:39.526Z,49.20
2018-10-07T09:36:11.869Z,49.60
2018-10-07T09:38:47.690Z,50.30
2018-10-07T09:41:20.130Z,49.20
2018-10-07T09:43:53.723Z,48.30
2018-10-07T09:46:25.943Z,48.60
2018-10-07T09:48:58.628Z,48.60
2018-10-07T09:51:30.811Z,49.00
2018-10-07T09:54:03.239Z,48.50
2018-10-07T09:56:35.462Z,47.60
2018-10-07T09:59:07.480Z,48.00
2018-10-07T10:01:39.922Z,48.60
2018-10-07T10:04:12.298Z,47.80
2018-10-07T10:06:44.771Z,47.60
2018-10-07T10:09:16.758Z,47.20
2018-10-07T10:11:49.587Z,47.00
2018-10-07T10:14:21.968Z,47.20
2018-10-07T10:17:01.960Z,47.20
2018-10-07T10:20:03.865Z,46.60
2018-10-07T10:22:59.735Z,45.70
2018-10-07T10:27:50.049Z,45.60
2018-10-07T10:30:35.699Z,46.30
2018-10-07T10:33:24.431Z,46.00
2018-10-07T10:36:09.773Z,45.80
2018-10-07T10:39:05.686Z,46.80
2018-10-07T10:42:46.782Z,43.80
2018-10-07T10:46:42.778Z,44.40
2018-10-07T10:49:30.712Z,44.30
2018-10-07T10:53:27.506Z,42.80
2018-10-07T10:56:26.817Z,42.60
2018-10-07T11:00:07.134Z,42.70
2018-10-07T11:03:55.604Z,43.50
2018-10-07T11:06:53.077Z,41.70
2018-10-07T11:11:55.165Z,40.50
2018-10-07T11:15:45.385Z,42.10
2018-10-07T11:18:29.638Z,38.60
2018-10-07T11:21:17.968Z,39.80
2018-10-07T11:24:11.113Z,38.30
2018-10-07T11:28:02.110Z,39.20
2018-10-07T11:32:50.501Z,40.60
2018-10-07T11:35:42.339Z,41.50
2018-10-07T11:40:55.686Z,38.90
2018-10-07T11:44:12.188Z,39.00
2018-10-07T11:47:07.073Z,38.10
2018-10-07T11:49:50.332Z,37.40
2018-10-07T11:52:57.951Z,37.00
2018-10-07T11:55:30.792Z,38.40
2018-10-07T11:58:03.068Z,38.20
2018-10-07T12:00:35.649Z,38.00
2018-10-07T12:03:09.596Z,37.70
2018-10-07T12:05:41.683Z,36.40
2018-10-07T12:08:14.440Z,36.50
2018-10-07T12:10:47.201Z,36.30
2018-10-07T12:13:19.596Z,35.90
2018-10-07T12:15:51.667Z,36.30
2018-10-07T12:18:24.684Z,36.40
2018-10-07T12:20:57.665Z,37.30
2018-10-07T12:23:30.213Z,37.00
2018-10-07T12:26:02.533Z,37.20
2018-10-07T12:28:35.869Z,35.50
2018-10-07T12:31:08.424Z,36.10
2018-10-07T12:33:40.657Z,34.90
2018-10-07T12:36:14.095Z,34.70
2018-10-07T12:38:49.299Z,36.40
2018-10-07T12:41:21.433Z,36.50
2018-10-07T12:43:54.475Z,36.30
2018-10-07T12:46:26.918Z,34.90
2018-10-07T12:48:59.096Z,35.30
2018-10-07T12:51:31.916Z,32.80
2018-10-07T12:54:04.752Z,34.50
2018-10-07T12:56:46.512Z,34.00
2018-10-07T12:59:18.629Z,33.70
2018-10-07T13:01:51.317Z,35.60
2018-10-07T13:04:24.565Z,36.00
2018-10-07T13:06:56.531Z,35.90
2018-10-07T13:09:29.271Z,35.90
2018-10-07T13:12:01.884Z,36.10
2018-10-07T13:14:34.158Z,36.10
2018-10-07T13:17:06.231Z,36.00
2018-10-07T13:19:38.572Z,36.60
2018-10-07T13:22:10.784Z,37.50
2018-10-07T13:24:42.786Z,37.60
2018-10-07T13:27:15.085Z,37.30
2018-10-07T13:29:47.226Z,36.90
2018-10-07T13:32:19.802Z,38.00
2018-10-07T13:34:52.138Z,38.20
2018-10-07T13:37:24.239Z,37.50
2018-10-07T13:39:56.979Z,37.80
2018-10-07T13:42:29.533Z,38.00
2018-10-07T13:45:01.947Z,38.50
2018-10-07T13:47:34.326Z,39.00
2018-10-07T13:50:06.943Z,37.90
2018-10-07T13:52:39.218Z,38.40
2018-10-07T13:55:11.298Z,39.00
2018-10-07T13:57:43.355Z,38.60
2018-10-07T14:00:15.805Z,38.50
2018-10-07T14:02:48.327Z,37.50
2018-10-07T14:05:20.809Z,37.80
2018-10-07T14:07:52.886Z,37.00
2018-10-07T14:10:25.212Z,37.60
2018-10-07T14:12:57.547Z,37.80
2018-10-07T14:15:29.695Z,37.30
2018-10-07T14:18:03.113Z,37.60
2018-10-07T14:20:35.243Z,37.20
2018-10-07T14:23:07.914Z,36.90
2018-10-07T14:25:40.307Z,37.30
2018-10-07T14:28:12.477Z,36.70
2018-10-07T14:30:45.450Z,36.60
2018-10-07T14:33:17.929Z,37.60
2018-10-07T14:35:50.220Z,37.60
2018-10-07T14:38:22.668Z,37.00
2018-10-07T14:40:54.802Z,37.50
2018-10-07T14:43:27.149Z,36.60
2018-10-07T14:45:59.336Z,36.90
2018-10-07T14:48:33.004Z,37.00
2018-10-07T14:51:05.902Z,37.10
2018-10-07T14:53:38.136Z,38.00
2018-10-07T14:56:10.690Z,38.30
2018-10-07T14:58:43.148Z,38.90
2018-10-07T15:01:15.806Z,39.10
2018-10-07T15:03:48.130Z,39.20
2018-10-07T15:06:20.568Z,39.50
2018-10-07T15:08:53.021Z,40.30
2018-10-07T15:11:26.274Z,41.10
2018-10-07T15:13:59.339Z,40.90
2018-10-07T15:16:32.228Z,41.90
2018-10-07T15:19:04.507Z,42.90
2018-10-07T15:21:36.798Z,43.50
2018-10-07T15:24:09.332Z,44.30
2018-10-07T15:26:42.311Z,45.40
2018-10-07T15:29:16.363Z,44.20
2018-10-07T15:31:49.498Z,44.60
2018-10-07T15:34:21.619Z,46.40
2018-10-07T15:36:53.772Z,48.10
2018-10-07T15:39:27.417Z,47.60
2018-10-07T15:42:01.185Z,48.10
2018-10-07T15:44:34.132Z,48.10
2018-10-07T15:47:06.599Z,49.30
2018-10-07T15:49:38.803Z,49.70
2018-10-07T15:52:10.924Z,50.20
2018-10-07T15:54:43.709Z,50.90
2018-10-07T15:57:15.483Z,52.00
2018-10-07T15:59:47.579Z,53.30
2018-10-07T16:02:19.932Z,52.50
2018-10-07T16:04:54.281Z,52.80
2018-10-07T16:07:27.471Z,54.50
2018-10-07T16:09:59.782Z,54.20
2018-10-07T16:12:33.415Z,53.60
2018-10-07T16:15:06.139Z,54.10
2018-10-07T16:17:40.398Z,54.80
2018-10-07T16:20:12.815Z,55.70
2018-10-07T16:22:45.972Z,55.20
2018-10-07T16:25:19.105Z,55.20
2018-10-07T16:27:51.479Z,55.40
2018-10-07T16:30:23.432Z,55.90
2018-10-07T16:32:55.682Z,56.00
2018-10-07T16:35:28.094Z,56.10
2018-10-07T16:38:00.820Z,56.20
2018-10-07T16:40:34.365Z,56.30
2018-10-07T16:43:06.955Z,57.40
2018-10-07T16:45:39.235Z,57.80
2018-10-07T16:48:11.643Z,58.10
2018-10-07T16:50:44.092Z,58.30
2018-10-07T16:53:16.519Z,58.60
2018-10-07T16:55:48.878Z,58.80
2018-10-07T16:58:22.697Z,59.10
2018-10-07T17:00:55.201Z,59.30
2018-10-07T17:03:27.291Z,60.40
2018-10-07T17:05:59.933Z,59.90
2018-10-07T17:08:32.120Z,60.40
2018-10-07T17:11:05.427Z,60.70
2018-10-07T17:13:38.113Z,61.30
2018-10-07T17:16:10.749Z,61.70
2018-10-07T17:18:43.577Z,62.00
2018-10-07T17:21:15.644Z,62.10
2018-10-07T17:23:47.887Z,62.50
2018-10-07T17:26:20.801Z,63.00
2018-10-07T17:28:54.193Z,63.10
2018-10-07T17:31:26.719Z,63.40
2018-10-07T17:33:59.785Z,63.90
2018-10-07T17:36:38.952Z,64.00
2018-10-07T17:39:12.606Z,64.30
2018-10-07T17:41:44.929Z,64.60
2018-10-07T17:44:18.386Z,64.70
2018-10-07T17:46:50.705Z,64.90
2018-10-07T17:49:23.778Z,64.90
2018-10-07T17:51:56.768Z,65.50
2018-10-07T17:54:30.039Z,65.80
2018-10-07T17:57:02.573Z,65.60
2018-10-07T17:59:36.142Z,66.00
2018-10-07T18:02:10.196Z,66.40
2018-10-07T18:04:43.557Z,66.80
2018-10-07T18:07:16.376Z,67.00
2018-10-07T18:09:49.370Z,67.20
2018-10-07T18:12:22.283Z,67.40
2018-10-07T18:14:55.368Z,67.80
2018-10-07T18:17:28.031Z,68.20
2018-10-07T18:20:02.747Z,68.40
2018-10-07T18:22:36.099Z,68.80
2018-10-07T18:25:08.779Z,69.20
2018-10-07T18:27:41.092Z,69.90
2018-10-07T18:30:13.818Z,70.40
2018-10-07T18:32:46.843Z,71.40
2018-10-07T18:35:19.289Z,70.80
2018-10-07T18:37:51.827Z,71.30
2018-10-07T18:40:23.964Z,71.30
2018-10-07T18:42:56.232Z,71.60
2018-10-07T18:45:28.975Z,71.90
2018-10-07T18:48:01.473Z,72.40
2018-10-07T18:50:34.313Z,72.90
2018-10-07T18:53:07.571Z,73.10
2018-10-07T18:55:39.968Z,73.10
2018-10-07T18:58:12.607Z,73.50
2018-10-07T19:00:45.669Z,73.70
2018-10-07T19:03:18.182Z,74.20
2018-10-07T19:05:50.414Z,74.30
2018-10-07T19:08:23.254Z,74.10
2018-10-07T19:10:55.421Z,74.30
2018-10-07T19:13:27.412Z,74.30
2018-10-07T19:15:59.745Z,74.10
2018-10-07T19:18:32.420Z,74.10
2018-10-07T19:21:04.680Z,74.20
2018-10-07T19:23:36.933Z,75.00
2018-10-07T19:26:09.090Z,74.50
2018-10-07T19:28:41.687Z,74.50
2018-10-07T19:31:14.664Z,74.60
2018-10-07T19:33:47.557Z,74.70
2018-10-07T19:36:19.575Z,75.10
2018-10-07T19:38:51.912Z,75.20
2018-10-07T19:41:24.455Z,75.20
2018-10-07T19:43:56.663Z,75.30
2018-10-07T19:46:29.070Z,75.50
2018-10-07T19:49:01.193Z,75.60
2018-10-07T19:51:34.199Z,75.60
2018-10-07T19:54:06.321Z,75.80
2018-10-07T19:56:38.613Z,76.20
2018-10-07T19:59:10.784Z,76.20
2018-10-07T20:01:42.882Z,76.40
2018-10-07T20:04:15.060Z,76.70
2018-10-07T20:06:47.243Z,76.90
2018-10-07T20:09:19.093Z,77.10
2018-10-07T20:11:51.759Z,77.10
2018-10-07T20:14:24.282Z,77.40
2018-10-07T20:16:56.010Z,77.20
2018-10-07T20:19:28.270Z,77.10
2018-10-07T20:22:00.329Z,77.10
2018-10-07T20:24:32.576Z,76.90
2018-10-07T20:27:04.541Z,76.90
2018-10-07T20:29:37.171Z,77.20
2018-10-07T20:32:09.460Z,77.70
2018-10-07T20:34:43.109Z,78.20
2018-10-07T20:37:15.827Z,78.20
2018-10-07T20:39:48.024Z,77.90
2018-10-07T20:42:21.282Z,77.70
2018-10-07T20:44:53.764Z,78.50
2018-10-07T20:47:25.874Z,79.10
2018-10-07T20:49:58.189Z,79.20
2018-10-07T20:52:30.507Z,79.70
2018-10-07T20:55:02.812Z,80.50
2018-10-07T20:57:34.870Z,79.80
2018-10-07T21:00:07.403Z,80.00
2018-10-07T21:02:39.399Z,80.20
2018-10-07T21:05:11.783Z,80.50
2018-10-07T21:07:44.115Z,80.20
2018-10-07T21:10:16.315Z,80.30
2018-10-07T21:12:48.736Z,80.00
2018-10-07T21:15:20.940Z,80.00
2018-10-07T21:17:53.114Z,80.50
2018-10-07T21:20:26.455Z,80.50
2018-10-07T21:22:58.622Z,80.50
2018-10-07T21:25:31.106Z,80.20
2018-10-07T21:28:03.182Z,80.30
2018-10-07T21:30:35.358Z,81.10
2018-10-07T21:33:07.144Z,81.40
2018-10-07T21:35:39.169Z,81.30
2018-10-07T21:38:11.452Z,81.70
2018-10-07T21:40:43.603Z,81.60
2018-10-07T21:43:16.970Z,82.10
2018-10-07T21:45:49.110Z,82.30
2018-10-07T21:48:21.087Z,82.30
2018-10-07T21:50:53.104Z,82.40
2018-10-07T21:53:26.242Z,82.10
2018-10-07T21:55:58.756Z,82.10
2018-10-07T21:58:30.973Z,81.70
2018-10-07T22:01:03.218Z,81.60
2018-10-07T22:03:35.335Z,81.60
2018-10-07T22:06:07.877Z,82.20
2018-10-07T22:08:39.873Z,82.20
2018-10-07T22:11:11.789Z,82.50
2018-10-07T22:13:44.036Z,82.40
2018-10-07T22:16:16.146Z,82.80
2018-10-07T22:18:48.477Z,83.30
2018-10-07T22:21:20.536Z,83.40
2018-10-07T22:23:52.689Z,82.70
2018-10-07T22:26:25.369Z,82.50
2018-10-07T22:28:57.794Z,83.10
2018-10-07T22:31:29.799Z,83.50
2018-10-07T22:34:01.851Z,83.30
2018-10-07T22:36:33.795Z,83.30
2018-10-07T22:39:07.243Z,83.20
2018-10-07T22:41:39.298Z,83.10
2018-10-07T22:44:11.502Z,83.20
2018-10-07T22:46:43.527Z,83.80
2018-10-07T22:49:15.562Z,83.70
2018-10-07T22:51:47.451Z,83.90
2018-10-07T22:54:19.548Z,83.60
2018-10-07T22:56:51.887Z,83.60
2018-10-07T22:59:23.940Z,83.60
2018-10-07T23:01:56.275Z,84.60
2018-10-07T23:04:28.406Z,83.60
2018-10-07T23:07:00.446Z,82.90
2018-10-07T23:09:32.356Z,82.60
2018-10-07T23:12:04.382Z,82.50
2018-10-07T23:14:36.543Z,82.60
2018-10-07T23:17:09.220Z,83.30
2018-10-07T23:19:41.288Z,83.70
2018-10-07T23:22:13.105Z,83.70
2018-10-07T23:24:45.231Z,83.70
2018-10-07T23:27:17.264Z,83.80
2018-10-07T23:29:49.033Z,83.80
2018-10-07T23:32:20.963Z,83.70
2018-10-07T23:34:53.160Z,84.10
2018-10-07T23:37:25.233Z,83.60
2018-10-07T23:39:57.330Z,82.90
2018-10-07T23:42:29.444Z,82.30
2018-10-07T23:45:01.382Z,82.80
2018-10-07T23:47:33.576Z,83.20
2018-10-07T23:50:05.513Z,83.30
2018-10-07T23:52:37.270Z,83.10
2018-10-07T23:55:09.215Z,82.90
2018-10-07T23:57:41.656Z,83.10
